Time;durP1;ratioP1;P1;durP2;ratioP2;P2;SDS_P1;SDS_P2;PMS_P1;PMS_P2;Temp;Humidity;BMP_temperature;BMP_pressure;BME280_temperature;BME280_humidity;BME280_pressure;Samples;Min_cycle;Max_cycle;Signal;HPM_P1;HPM_P2
2022/04/14 00:00:59;;;;;;;13.68;10.60;;;;;;;13.87;59.14;101273.03;5024311;28;20240;-52
2022/04/14 00:03:26;;;;;;;12.00;9.50;;;;;;;13.70;60.25;101275.75;5022259;28;20233;-53
2022/04/14 00:05:52;;;;;;;11.10;9.57;;;;;;;13.62;60.99;101277.56;5023703;28;20744;-53
2022/04/14 00:08:20;;;;;;;13.90;9.52;;;;;;;13.58;60.69;101286.34;5022348;28;20902;-54
2022/04/14 00:10:46;;;;;;;11.07;9.98;;;;;;;13.53;60.43;101277.59;5004739;28;20272;-54
2022/04/14 00:13:12;;;;;;;16.33;10.13;;;;;;;13.45;60.82;101274.13;5007188;28;20229;-54
2022/04/14 00:15:38;;;;;;;13.25;11.02;;;;;;;13.40;61.45;101276.75;5005121;28;20249;-63
2022/04/14 00:18:05;;;;;;;10.93;9.82;;;;;;;13.32;61.83;101274.16;5015312;28;20294;-52
2022/04/14 00:20:32;;;;;;;14.52;10.32;;;;;;;13.26;61.88;101271.53;5015631;28;20233;-53
2022/04/14 00:22:59;;;;;;;9.35;8.45;;;;;;;13.27;61.14;101270.66;5017285;28;20393;-54
2022/04/14 00:25:27;;;;;;;10.57;9.57;;;;;;;13.35;59.92;101265.34;5017436;28;20240;-53
2022/04/14 00:27:53;;;;;;;12.48;9.98;;;;;;;13.35;58.96;101266.22;5023558;28;20241;-54
2022/04/14 00:30:20;;;;;;;11.10;9.73;;;;;;;13.36;58.52;101272.38;5017568;28;20237;-53
2022/04/14 00:32:46;;;;;;;13.68;8.88;;;;;;;13.34;59.22;101271.53;5024583;28;20291;-54
2022/04/14 00:35:12;;;;;;;12.00;9.60;;;;;;;13.34;59.55;101271.53;5023105;28;20623;-53
2022/04/14 00:37:39;;;;;;;11.52;9.65;;;;;;;13.30;60.26;101272.41;5037379;28;20251;-63
2022/04/14 00:40:07;;;;;;;12.63;9.68;;;;;;;13.28;61.03;101272.41;5017534;28;20252;-53
2022/04/14 00:42:34;;;;;;;15.50;11.70;;;;;;;13.31;62.48;101277.69;5013870;28;20232;-53
2022/04/14 00:45:01;;;;;;;21.77;14.50;;;;;;;13.28;63.49;101272.41;5017289;28;20244;-53
2022/04/14 00:47:28;;;;;;;18.75;13.82;;;;;;;13.19;64.07;101277.66;5017393;28;20240;-54
2022/04/14 00:49:54;;;;;;;16.00;12.82;;;;;;;13.09;64.65;101278.56;5023189;28;20282;-53
2022/04/14 00:52:22;;;;;;;19.77;13.70;;;;;;;13.02;64.90;101290.94;5023460;28;20233;-54
2022/04/14 00:54:48;;;;;;;15.80;12.30;;;;;;;12.95;65.19;101283.00;5022064;28;20261;-55
2022/04/14 00:57:15;;;;;;;14.75;12.10;;;;;;;12.86;65.39;101284.78;5021812;28;20318;-54
2022/04/14 00:59:43;;;;;;;18.67;12.70;;;;;;;12.82;66.02;101276.91;5016026;28;20335;-54
2022/04/14 01:02:09;;;;;;;15.57;12.88;;;;;;;12.80;65.99;101281.28;5022335;28;20295;-56
2022/04/14 01:04:37;;;;;;;17.42;11.95;;;;;;;12.76;65.83;101285.69;5019606;28;20781;-53
2022/04/14 01:07:06;;;;;;;17.38;12.90;;;;;;;12.73;66.09;101285.69;5024598;28;20240;-53
2022/04/14 01:09:34;;;;;;;16.55;13.18;;;;;;;12.68;66.55;101278.69;5021520;28;20291;-54
2022/04/14 01:12:01;;;;;;;15.70;11.65;;;;;;;12.64;66.52;101280.44;5024651;28;20228;-53
2022/04/14 01:14:29;;;;;;;11.88;10.68;;;;;;;12.61;66.29;101280.44;5009192;28;20803;-53
2022/04/14 01:16:58;;;;;;;14.55;9.90;;;;;;;12.63;65.63;101282.16;5022419;28;20724;-54
2022/04/14 01:19:25;;;;;;;14.00;10.57;;;;;;;12.63;65.10;101283.94;5030286;28;20240;-54
2022/04/14 01:21:56;;;;;;;11.90;10.07;;;;;;;12.71;64.57;101279.56;5024188;28;20279;-53
2022/04/14 01:24:24;;;;;;;13.30;10.70;;;;;;;12.74;64.29;101278.66;5020555;28;20232;-54
2022/04/14 01:26:50;;;;;;;11.77;9.10;;;;;;;12.72;64.72;101278.66;5025016;28;20244;-53
2022/04/14 01:29:22;;;;;;;13.90;9.63;;;;;;;12.74;65.22;101279.56;5024014;28;20341;-54
2022/04/14 01:31:48;;;;;;;16.67;11.30;;;;;;;12.71;65.39;101282.19;5019437;28;20236;-52
2022/04/14 01:34:14;;;;;;;14.40;11.23;;;;;;;12.70;65.50;101277.78;5023942;28;20256;-53
2022/04/14 01:36:41;;;;;;;14.77;11.10;;;;;;;12.69;65.93;101285.69;4993878;28;20241;-55
2022/04/14 01:39:08;;;;;;;18.05;13.48;;;;;;;12.67;67.07;101293.59;5005246;28;20241;-53
2022/04/14 01:41:35;;;;;;;14.20;11.23;;;;;;;12.58;67.57;101290.97;5018841;28;20613;-53
2022/04/14 01:44:02;;;;;;;15.73;12.25;;;;;;;12.56;68.34;101295.34;5020912;28;20699;-55
2022/04/14 01:46:28;;;;;;;14.43;11.40;;;;;;;12.45;68.44;101297.97;5023031;28;20287;-54
2022/04/14 01:48:54;;;;;;;15.90;11.95;;;;;;;12.38;69.58;101294.47;5016717;28;20262;-53
2022/04/14 01:51:21;;;;;;;16.83;12.70;;;;;;;12.33;68.98;101296.22;5020629;28;20231;-53
2022/04/14 01:53:47;;;;;;;17.20;12.95;;;;;;;12.28;68.87;101294.47;5017863;28;20248;-53
2022/04/14 01:56:14;;;;;;;15.70;12.80;;;;;;;12.25;69.23;101290.09;5012037;28;20265;-53
2022/04/14 01:58:41;;;;;;;16.75;14.25;;;;;;;12.26;69.14;101296.22;5019984;28;20267;-55
2022/04/14 02:01:08;;;;;;;19.63;15.15;;;;;;;12.21;69.78;101290.94;5020224;28;20232;-53
2022/04/14 02:03:34;;;;;;;19.33;14.52;;;;;;;12.13;70.43;101296.19;5025426;28;20648;-53
2022/04/14 02:06:00;;;;;;;22.25;15.98;;;;;;;12.09;70.87;101283.91;5022774;28;20702;-54
2022/04/14 02:08:26;;;;;;;20.48;15.90;;;;;;;12.06;70.79;101299.69;5019551;28;20282;-53
2022/04/14 02:10:53;;;;;;;19.83;16.35;;;;;;;12.00;70.99;101293.53;5015772;28;20241;-53
2022/04/14 02:13:19;;;;;;;20.60;16.25;;;;;;;11.93;71.11;101301.44;5016616;28;20239;-53
2022/04/14 02:15:47;;;;;;;18.70;15.18;;;;;;;11.82;71.75;101302.22;5028427;28;20252;-54
2022/04/14 02:18:13;;;;;;;20.85;15.02;;;;;;;11.82;71.95;101305.72;5023687;28;20228;-53
2022/04/14 02:20:40;;;;;;;23.67;17.20;;;;;;;11.79;72.47;101304.84;5018459;28;20718;-54
2022/04/14 02:23:06;;;;;;;21.42;17.13;;;;;;;11.74;73.29;101303.97;5015134;28;20256;-54
2022/04/14 02:25:32;;;;;;;21.17;15.38;;;;;;;11.71;72.57;101321.47;5019496;28;20617;-54
2022/04/14 02:27:59;;;;;;;22.52;14.88;;;;;;;11.66;71.91;101309.22;5020902;28;20727;-53
2022/04/14 02:30:25;;;;;;;20.65;14.80;;;;;;;11.56;72.77;101312.66;5022670;28;20367;-54
2022/04/14 02:32:53;;;;;;;18.52;15.80;;;;;;;11.71;73.20;101334.63;5023854;28;20282;-53
2022/04/14 02:35:19;;;;;;;22.63;16.33;;;;;;;11.55;74.61;101318.78;5022596;28;20240;-53
2022/04/14 02:37:45;;;;;;;17.02;13.32;;;;;;;11.44;75.11;101329.25;5018907;28;20487;-54
2022/04/14 02:40:13;;;;;;;15.57;11.40;;;;;;;11.42;75.40;101329.25;5018860;28;20664;-53
2022/04/14 02:42:41;;;;;;;14.05;11.38;;;;;;;11.39;75.29;101336.25;5014882;28;20319;-54
2022/04/14 02:45:08;;;;;;;12.60;10.80;;;;;;;11.59;73.93;101336.34;5019896;28;20726;-54
2022/04/14 02:47:35;;;;;;;14.35;12.05;;;;;;;11.71;73.34;101345.16;4999155;28;20255;-53
2022/04/14 02:50:03;;;;;;;18.02;12.15;;;;;;;11.63;73.53;101344.25;5015605;28;20592;-53
2022/04/14 02:52:29;;;;;;;14.65;10.27;;;;;;;11.65;73.20;101345.16;5022765;28;20240;-53
2022/04/14 02:54:56;;;;;;;13.73;11.52;;;;;;;11.62;72.28;101344.25;5023933;28;20225;-53
2022/04/14 02:57:22;;;;;;;15.98;11.27;;;;;;;11.57;72.13;101335.47;5019789;28;20268;-53
2022/04/14 02:59:49;;;;;;;19.70;12.63;;;;;;;11.54;71.99;101335.44;5007713;28;20232;-54
2022/04/14 03:02:15;;;;;;;13.98;10.75;;;;;;;11.59;71.83;101344.25;5007410;28;20260;-54
2022/04/14 03:04:41;;;;;;;15.18;12.05;;;;;;;11.60;71.62;101361.78;5013615;28;20259;-53
2022/04/14 03:07:09;;;;;;;13.40;12.02;;;;;;;11.61;72.68;101358.25;5008685;28;20241;-53
2022/04/14 03:09:35;;;;;;;16.33;12.10;;;;;;;11.53;72.65;101360.84;5023008;28;20275;-53
2022/04/14 03:12:02;;;;;;;12.55;11.27;;;;;;;11.44;72.74;101369.59;5024143;28;20260;-53
2022/04/14 03:14:28;;;;;;;15.07;11.75;;;;;;;11.37;72.94;101375.69;5022103;28;20298;-52
2022/04/14 03:16:54;;;;;;;15.73;11.80;;;;;;;11.31;73.22;101370.38;5023058;28;20252;-54
2022/04/14 03:19:20;;;;;;;13.02;10.75;;;;;;;11.27;73.37;101357.19;5022633;28;20648;-53
2022/04/14 03:21:47;;;;;;;12.73;11.02;;;;;;;11.22;73.80;101358.03;5028464;28;20322;-54
2022/04/14 03:24:14;;;;;;;14.48;11.25;;;;;;;11.21;74.26;101358.94;5032155;28;20866;-53
2022/04/14 03:26:41;;;;;;;14.43;11.57;;;;;;;11.32;74.41;101372.13;5027872;28;20310;-53
2022/04/14 03:29:07;;;;;;;12.23;10.87;;;;;;;11.26;74.92;101377.34;5024803;28;20281;-54
2022/04/14 03:31:33;;;;;;;12.97;11.63;;;;;;;11.29;75.15;101374.75;5024113;28;20282;-53
2022/04/14 03:34:00;;;;;;;14.00;11.60;;;;;;;11.22;75.99;101375.56;5021054;28;20718;-53
2022/04/14 03:36:26;;;;;;;15.37;11.83;;;;;;;11.21;76.42;101374.69;5023339;28;20233;-54
2022/04/14 03:38:53;;;;;;;13.57;10.13;;;;;;;11.22;76.64;101365.94;5022212;28;20237;-54
2022/04/14 03:41:20;;;;;;;12.77;11.57;;;;;;;11.25;76.61;101364.22;5022937;28;20260;-56
2022/04/14 03:43:47;;;;;;;11.73;10.23;;;;;;;11.23;77.03;101372.97;5024723;28;20245;-54
2022/04/14 03:46:14;;;;;;;11.33;9.33;;;;;;;11.24;77.27;101373.84;5020807;28;20228;-53
2022/04/14 03:48:41;;;;;;;13.03;11.20;;;;;;;11.26;77.44;101374.72;5036055;28;20845;-53
2022/04/14 03:51:07;;;;;;;12.35;11.18;;;;;;;11.21;77.65;101368.56;5031903;28;20240;-53
2022/04/14 03:53:34;;;;;;;10.25;9.25;;;;;;;11.18;78.31;101365.91;5017051;28;20260;-54
2022/04/14 03:56:00;;;;;;;10.65;9.55;;;;;;;11.14;78.76;101358.88;5028616;28;20295;-53
2022/04/14 03:58:28;;;;;;;12.00;10.80;;;;;;;11.12;79.73;101360.59;5019083;28;20259;-53
2022/04/14 04:00:54;;;;;;;12.67;10.67;;;;;;;11.15;80.04;101360.63;5027596;28;20232;-54
2022/04/14 04:03:20;;;;;;;14.07;11.23;;;;;;;11.23;80.42;101361.53;5013042;28;20290;-53
2022/04/14 04:05:47;;;;;;;10.37;9.37;;;;;;;11.18;81.19;101363.28;5038878;28;20780;-52
2022/04/14 04:08:13;;;;;;;11.45;10.10;;;;;;;11.25;81.29;101364.22;5030694;28;20290;-53
2022/04/14 04:10:39;;;;;;;10.98;9.88;;;;;;;11.25;81.24;101370.34;5032475;28;20237;-61
2022/04/14 04:13:06;;;;;;;11.32;9.32;;;;;;;11.31;81.71;101386.16;5030030;28;20298;-53
2022/04/14 04:15:34;;;;;;;10.57;9.48;;;;;;;11.34;81.67;101380.06;5030437;28;20236;-53
2022/04/14 04:18:00;;;;;;;12.60;9.90;;;;;;;11.39;82.08;101394.97;5015089;28;20237;-53
2022/04/14 04:20:26;;;;;;;12.82;9.85;;;;;;;11.41;82.61;101395.00;5024790;28;20283;-53
2022/04/14 04:22:53;;;;;;;10.98;9.90;;;;;;;11.37;83.15;101403.69;5023188;28;20298;-53
2022/04/14 04:25:19;;;;;;;9.52;8.63;;;;;;;11.31;83.60;101401.94;5027629;28;20259;-53
2022/04/14 04:27:45;;;;;;;12.50;9.07;;;;;;;11.29;84.53;101408.91;5019450;28;20237;-53
2022/04/14 04:30:12;;;;;;;11.18;9.30;;;;;;;11.32;84.84;101402.81;5026610;28;20232;-54
2022/04/14 04:32:39;;;;;;;10.23;9.02;;;;;;;11.36;85.58;101415.97;5024060;28;20252;-53
2022/04/14 04:35:07;;;;;;;10.52;8.02;;;;;;;11.32;85.54;101411.56;5022892;28;20275;-53
2022/04/14 04:37:33;;;;;;;11.25;9.80;;;;;;;11.37;85.70;101415.13;5016794;28;20686;-53
2022/04/14 04:40:00;;;;;;;10.63;8.75;;;;;;;11.31;85.96;101411.56;5025214;28;20722;-53
2022/04/14 04:42:26;;;;;;;11.13;9.47;;;;;;;11.33;85.87;101423.84;5019247;28;20599;-54
2022/04/14 04:44:52;;;;;;;11.43;9.50;;;;;;;11.36;86.20;101431.75;5023629;28;20290;-54
2022/04/14 04:47:20;;;;;;;10.95;9.82;;;;;;;11.34;86.54;101425.63;5026642;28;20233;-54
2022/04/14 04:49:47;;;;;;;10.95;9.00;;;;;;;11.30;86.87;101421.22;5025894;28;20402;-53
2022/04/14 04:52:14;;;;;;;12.82;9.27;;;;;;;11.23;87.38;101407.16;5017905;28;20261;-52
2022/04/14 04:54:40;;;;;;;12.85;9.23;;;;;;;11.25;87.79;101407.13;5020387;28;20244;-55
2022/04/14 04:57:06;;;;;;;12.57;8.87;;;;;;;11.29;87.66;101408.91;5023967;28;20793;-53
2022/04/14 04:59:33;;;;;;;14.33;10.47;;;;;;;11.42;87.46;101405.50;5024833;28;20271;-53
2022/04/14 05:02:00;;;;;;;10.93;9.68;;;;;;;11.38;87.51;101403.72;5023398;28;20241;-54
2022/04/14 05:04:26;;;;;;;12.95;8.45;;;;;;;11.39;87.82;101394.97;5016472;28;20278;-54
2022/04/14 05:06:54;;;;;;;12.32;9.35;;;;;;;11.36;88.03;101389.69;5021449;28;20938;-53
2022/04/14 05:09:23;;;;;;;8.35;7.55;;;;;;;11.41;87.56;101395.88;5022113;28;20711;-54
2022/04/14 05:11:50;;;;;;;8.13;6.65;;;;;;;11.45;86.27;101400.25;5017099;28;20237;-54
2022/04/14 05:14:16;;;;;;;9.85;8.48;;;;;;;11.46;87.28;101391.50;5022690;28;20776;-53
2022/04/14 05:16:43;;;;;;;8.43;7.47;;;;;;;11.53;86.96;101397.69;5025920;28;20240;-53
2022/04/14 05:19:09;;;;;;;11.82;8.68;;;;;;;11.53;87.23;101399.44;5025060;28;20232;-53
2022/04/14 05:21:35;;;;;;;12.43;8.50;;;;;;;11.62;87.56;101408.25;5041570;28;20700;-53
2022/04/14 05:24:04;;;;;;;9.43;8.45;;;;;;;11.68;87.48;101412.66;5021841;28;20287;-53
2022/04/14 05:26:30;;;;;;;10.10;9.02;;;;;;;11.69;87.52;101409.19;5031296;28;20653;-54
2022/04/14 05:28:56;;;;;;;12.32;8.32;;;;;;;11.73;87.55;101405.69;5020506;28;20260;-54
2022/04/14 05:31:23;;;;;;;11.30;8.25;;;;;;;11.74;87.79;101396.03;5026097;28;20220;-53
2022/04/14 05:33:49;;;;;;;8.27;7.25;;;;;;;11.77;88.05;101406.59;5018913;28;20345;-54
2022/04/14 05:36:15;;;;;;;8.18;7.38;;;;;;;11.80;87.96;101406.59;5024364;28;20240;-54
2022/04/14 05:38:42;;;;;;;9.07;7.13;;;;;;;11.82;87.99;101404.84;5021175;28;20244;-54
2022/04/14 05:41:09;;;;;;;10.13;7.47;;;;;;;11.86;87.94;101417.16;5025741;28;20240;-54
2022/04/14 05:43:36;;;;;;;9.05;7.10;;;;;;;11.91;87.76;101415.44;5028211;28;20241;-53
2022/04/14 05:46:03;;;;;;;9.13;8.23;;;;;;;11.97;87.42;101414.56;5016354;28;20648;-53
2022/04/14 05:48:29;;;;;;;8.50;7.68;;;;;;;12.01;87.63;101416.38;5026060;28;21419;-52
2022/04/14 05:50:56;;;;;;;14.48;7.68;;;;;;;12.04;87.38;101416.34;5021147;28;20561;-54
2022/04/14 05:53:25;;;;;;;9.35;7.60;;;;;;;12.08;87.79;101407.63;5021348;28;20232;-55
2022/04/14 05:55:51;;;;;;;9.13;6.95;;;;;;;12.15;86.86;101419.94;5024752;28;20679;-54
2022/04/14 05:58:19;;;;;;;11.32;7.50;;;;;;;12.20;86.46;101426.09;5016826;28;20765;-53
2022/04/14 06:00:45;;;;;;;12.38;8.77;;;;;;;12.27;86.06;101429.63;5027810;28;20311;-55
2022/04/14 06:03:12;;;;;;;10.52;7.65;;;;;;;12.30;85.83;101425.25;5004855;28;20569;-53
2022/04/14 06:05:38;;;;;;;9.98;8.10;;;;;;;12.38;85.78;101426.13;5015980;28;20248;-58
2022/04/14 06:08:05;;;;;;;11.25;8.30;;;;;;;12.40;85.67;101432.28;5020290;28;20241;-53
2022/04/14 06:10:32;;;;;;;9.15;8.25;;;;;;;12.39;85.37;101417.38;5035000;28;21632;-54
2022/04/14 06:12:58;;;;;;;10.40;7.78;;;;;;;12.46;85.40;101420.00;5004267;28;20607;-54
2022/04/14 06:15:27;;;;;;;10.27;8.18;;;;;;;12.39;85.82;101422.66;5019234;28;20301;-54
2022/04/14 06:17:54;;;;;;;9.82;8.20;;;;;;;12.36;86.07;101427.91;5020433;28;20358;-54
2022/04/14 06:20:21;;;;;;;9.45;8.43;;;;;;;12.35;86.25;101428.75;5004521;28;20295;-53
2022/04/14 06:22:47;;;;;;;10.88;7.53;;;;;;;12.34;86.39;101429.63;5015247;28;20244;-54
2022/04/14 06:25:16;;;;;;;11.73;8.75;;;;;;;12.44;85.74;101420.00;5022013;28;20302;-54
2022/04/14 06:27:43;;;;;;;9.57;8.57;;;;;;;12.45;85.90;101426.16;5022092;28;20261;-55
2022/04/14 06:30:11;;;;;;;12.10;8.00;;;;;;;12.51;85.28;101424.41;5022891;28;20232;-62
2022/04/14 06:32:39;;;;;;;10.73;9.00;;;;;;;12.57;84.75;101434.09;5021205;28;21053;-54
2022/04/14 06:35:07;;;;;;;8.15;7.35;;;;;;;12.60;85.10;101434.97;5014692;28;20325;-54
2022/04/14 06:37:34;;;;;;;10.30;8.43;;;;;;;12.62;84.44;101427.94;5022796;28;20233;-53
2022/04/14 06:40:00;;;;;;;9.38;8.48;;;;;;;12.62;84.94;101427.06;5019055;28;20236;-55
2022/04/14 06:42:26;;;;;;;11.50;8.77;;;;;;;12.76;84.04;101424.47;5018641;28;20256;-54
2022/04/14 06:44:58;;;;;;;9.00;8.07;;;;;;;12.76;84.09;101430.59;5015019;28;20228;-54
2022/04/14 06:47:24;;;;;;;10.05;8.25;;;;;;;12.83;83.89;101426.22;5021409;28;20229;-54
2022/04/14 06:49:52;;;;;;;12.57;8.68;;;;;;;12.91;83.38;101435.00;5019513;28;20709;-53
2022/04/14 06:52:18;;;;;;;9.80;8.57;;;;;;;12.87;83.65;101431.47;5021636;28;20228;-54
2022/04/14 06:54:45;;;;;;;10.32;8.35;;;;;;;12.92;83.74;101430.59;5022062;28;20256;-54
2022/04/14 06:57:11;;;;;;;12.10;8.70;;;;;;;12.98;83.58;101427.97;5022600;28;20702;-55
2022/04/14 06:59:37;;;;;;;12.50;8.77;;;;;;;13.04;83.29;101423.59;5020798;28;20339;-54
2022/04/14 07:02:04;;;;;;;10.13;7.70;;;;;;;13.13;82.97;101431.50;5025631;28;20689;-54
2022/04/14 07:04:31;;;;;;;12.30;8.45;;;;;;;13.21;82.74;101434.13;5025019;28;20822;-54
2022/04/14 07:06:58;;;;;;;9.18;7.78;;;;;;;13.34;82.24;101432.41;5022503;28;20762;-53
2022/04/14 07:09:25;;;;;;;10.40;8.25;;;;;;;13.54;81.71;101433.22;5024434;28;20286;-55
2022/04/14 07:11:53;;;;;;;9.27;8.30;;;;;;;13.58;80.89;101432.38;5034902;28;20242;-54
2022/04/14 07:14:19;;;;;;;9.38;8.48;;;;;;;13.75;80.73;101441.97;5028572;28;20228;-53
2022/04/14 07:16:46;;;;;;;11.77;8.52;;;;;;;13.92;79.91;101434.03;5022084;28;20244;-54
2022/04/14 07:19:12;;;;;;;8.65;7.75;;;;;;;14.00;79.41;101432.22;5022349;28;20232;-54
2022/04/14 07:21:39;;;;;;;9.73;6.82;;;;;;;14.21;78.12;101434.75;5022969;28;20746;-52
2022/04/14 07:24:07;;;;;;;9.15;7.50;;;;;;;14.09;78.50;101419.88;5019103;28;20744;-54
2022/04/14 07:26:34;;;;;;;9.70;7.90;;;;;;;14.08;78.08;101426.03;5023430;28;20294;-53
2022/04/14 07:29:00;;;;;;;8.65;7.57;;;;;;;14.04;78.58;101423.44;5018484;28;20637;-54
2022/04/14 07:31:26;;;;;;;11.98;8.48;;;;;;;14.12;78.60;101429.53;5023618;28;20776;-53
2022/04/14 07:33:53;;;;;;;9.50;7.53;;;;;;;14.14;78.53;101438.31;5017763;28;20260;-54
2022/04/14 07:36:21;;;;;;;9.75;7.03;;;;;;;14.20;78.63;101434.78;5018310;28;21408;-54
2022/04/14 07:38:47;;;;;;;9.80;8.40;;;;;;;14.29;78.24;101429.47;5018631;28;20241;-53
2022/04/14 07:41:15;;;;;;;10.43;7.90;;;;;;;14.40;78.17;101437.34;5012257;28;20236;-53
2022/04/14 07:43:41;;;;;;;7.97;7.18;;;;;;;14.58;77.35;101437.25;5022416;28;20283;-54
2022/04/14 07:46:08;;;;;;;8.40;7.43;;;;;;;14.76;76.41;101436.25;5024042;28;20291;-54
2022/04/14 07:48:34;;;;;;;8.55;7.75;;;;;;;15.01;75.34;101434.28;5026590;28;20306;-54
2022/04/14 07:51:01;;;;;;;11.07;6.80;;;;;;;15.03;74.93;101440.47;5024514;28;20710;-54
2022/04/14 07:53:27;;;;;;;9.40;6.55;;;;;;;15.16;74.96;101434.19;5025919;28;20244;-54
2022/04/14 07:55:54;;;;;;;8.93;6.28;;;;;;;15.30;75.15;101438.44;5020365;28;20849;-54
2022/04/14 07:58:22;;;;;;;8.43;6.28;;;;;;;15.19;74.80;101436.78;5025753;28;20529;-53
2022/04/14 08:00:50;;;;;;;8.10;5.50;;;;;;;15.21;75.50;101445.59;5024014;28;20302;-54
2022/04/14 08:03:17;;;;;;;6.97;6.20;;;;;;;15.13;76.37;101439.50;5026739;28;20460;-53
2022/04/14 08:05:44;;;;;;;5.28;4.75;;;;;;;15.10;77.01;101439.53;5024255;28;20240;-54
2022/04/14 08:08:13;;;;;;;19.25;8.38;;;;;;;15.22;76.63;101435.88;5024864;28;20256;-54
2022/04/14 08:10:40;;;;;;;8.23;5.63;;;;;;;15.44;75.54;101447.13;5034042;28;20582;-53
2022/04/14 08:13:07;;;;;;;6.65;5.18;;;;;;;15.61;74.50;101447.84;5025794;28;20302;-54
2022/04/14 08:15:35;;;;;;;6.28;5.43;;;;;;;15.74;74.28;101457.44;5025565;28;20237;-53
2022/04/14 08:18:03;;;;;;;8.77;5.75;;;;;;;15.77;74.31;101458.31;5026192;28;20232;-53
2022/04/14 08:20:29;;;;;;;9.15;6.00;;;;;;;15.94;73.38;101464.31;5018433;28;20233;-53
2022/04/14 08:22:57;;;;;;;7.88;5.55;;;;;;;16.03;73.37;101463.31;5024823;28;20237;-52
2022/04/14 08:25:25;;;;;;;8.23;6.03;;;;;;;16.02;73.06;101467.75;5017588;28;20236;-54
2022/04/14 08:27:52;;;;;;;9.07;5.72;;;;;;;16.09;73.08;101469.41;5025760;28;20259;-53
2022/04/14 08:30:20;;;;;;;6.50;5.32;;;;;;;16.13;73.05;101480.84;5026195;28;20232;-54
2022/04/14 08:32:49;;;;;;;6.53;4.80;;;;;;;15.98;73.80;101479.28;5039016;28;20236;-53
2022/04/14 08:35:17;;;;;;;5.07;4.57;;;;;;;15.96;73.27;101473.97;5026739;28;20260;-53
2022/04/14 08:37:44;;;;;;;9.88;4.45;;;;;;;15.90;74.48;101479.38;5022880;28;20263;-54
2022/04/14 08:40:12;;;;;;;4.57;4.20;;;;;;;15.98;74.29;101489.88;5023309;28;20268;-56
2022/04/14 08:42:40;;;;;;;6.25;4.35;;;;;;;16.07;73.75;101484.44;5020154;28;20240;-52
2022/04/14 08:45:09;;;;;;;5.15;3.97;;;;;;;16.22;73.33;101486.94;5022847;28;20602;-53
2022/04/14 08:47:36;;;;;;;5.18;4.35;;;;;;;16.26;73.47;101487.78;5023481;28;20294;-51
2022/04/14 08:50:06;;;;;;;6.03;4.15;;;;;;;16.39;72.74;101488.47;5019918;28;20295;-52
2022/04/14 08:52:34;;;;;;;7.68;4.50;;;;;;;16.58;71.69;101490.00;5020741;28;20252;-54
2022/04/14 08:55:01;;;;;;;8.13;4.03;;;;;;;16.56;71.17;101494.44;5023577;28;20615;-54
2022/04/14 08:57:28;;;;;;;3.65;2.97;;;;;;;16.52;71.92;101499.81;5023227;28;20228;-54
2022/04/14 08:59:55;;;;;;;5.90;3.63;;;;;;;16.54;71.92;101498.03;5020423;28;20232;-54
2022/04/14 09:02:22;;;;;;;8.20;4.28;;;;;;;16.50;72.19;101502.47;5023702;28;20731;-53
2022/04/14 09:04:50;;;;;;;5.97;4.75;;;;;;;16.41;72.17;101508.75;5021975;28;20672;-54
2022/04/14 09:07:18;;;;;;;5.60;4.43;;;;;;;16.34;73.11;101512.38;5017926;28;20228;-55
2022/04/14 09:09:44;;;;;;;7.05;5.03;;;;;;;16.42;73.21;101502.56;5025492;28;20590;-53
2022/04/14 09:12:11;;;;;;;5.13;4.35;;;;;;;16.50;73.02;101501.56;5020009;28;20286;-56
2022/04/14 09:14:39;;;;;;;6.53;4.40;;;;;;;16.52;72.77;101505.97;5024020;28;20233;-53
2022/04/14 09:17:05;;;;;;;5.28;3.45;;;;;;;16.40;73.60;101504.38;5015181;28;20490;-52
2022/04/14 09:19:33;;;;;;;5.70;3.55;;;;;;;16.46;74.62;101506.03;5022362;28;20279;-52
2022/04/14 09:21:59;;;;;;;3.35;3.05;;;;;;;16.45;73.74;101509.59;5023657;28;20319;-52
2022/04/14 09:24:41;;;;;;;4.97;2.90;;;;;;;16.38;74.25;101514.09;5019171;28;20236;-53
2022/04/14 09:27:07;;;;;;;4.28;2.67;;;;;;;16.37;75.03;101506.19;5020228;28;20498;-53
2022/04/14 09:29:34;;;;;;;3.15;2.42;;;;;;;16.35;75.14;101511.47;5022797;28;20724;-53
2022/04/14 09:32:01;;;;;;;3.23;2.87;;;;;;;16.36;75.09;101509.75;5011774;28;20424;-52
2022/04/14 09:34:45;;;;;;;3.80;2.53;;;;;;;16.17;76.25;101504.63;5025413;28;20495;-53
2022/04/14 09:37:12;;;;;;;2.95;2.30;;;;;;;16.21;76.42;101505.47;5016877;28;20427;-53
2022/04/14 09:39:55;;;;;;;2.42;2.17;;;;;;;16.22;76.87;101499.31;5021271;28;20537;-54
2022/04/14 09:42:22;;;;;;;1.90;1.60;;;;;;;16.22;76.39;101502.81;5022288;28;20321;-54
2022/04/14 09:44:50;;;;;;;5.13;1.52;;;;;;;16.08;77.04;101499.47;5025036;28;20240;-54
2022/04/14 09:47:23;;;;;;;2.97;2.10;;;;;;;16.02;77.97;101507.47;5022843;28;20241;-53
2022/04/14 09:49:49;;;;;;;3.40;1.90;;;;;;;15.84;79.07;101499.72;5023026;28;20294;-54
2022/04/14 09:52:16;;;;;;;3.38;3.08;;;;;;;15.83;79.50;101497.97;5020027;28;20283;-54
2022/04/14 09:54:42;;;;;;;4.25;3.05;;;;;;;15.82;79.39;101496.22;5022106;28;20236;-55
2022/04/14 09:57:12;;;;;;;3.45;3.15;;;;;;;15.83;79.62;101498.88;5024223;28;20627;-55
2022/04/14 09:59:38;;;;;;;2.70;2.50;;;;;;;15.93;79.38;101499.63;5023933;28;20294;-54
2022/04/14 10:02:14;;;;;;;3.15;2.80;;;;;;;15.93;79.00;101496.97;5024326;28;20314;-53
2022/04/14 10:04:42;;;;;;;5.60;2.92;;;;;;;16.04;79.06;101502.16;5034388;28;20297;-55
2022/04/14 10:07:11;;;;;;;3.50;2.35;;;;;;;16.04;79.41;101503.06;5029210;28;20404;-53
2022/04/14 10:09:40;;;;;;;6.07;3.22;;;;;;;16.10;79.34;101505.59;5022756;28;20231;-54
2022/04/14 10:12:27;;;;;;;3.60;2.95;;;;;;;15.99;80.27;101499.56;5019789;28;20230;-53
2022/04/14 10:14:59;;;;;;;5.18;2.95;;;;;;;16.00;80.51;101501.31;5018770;28;20335;-52
2022/04/14 10:17:26;;;;;;;5.80;2.70;;;;;;;15.98;81.10;101514.56;5020985;28;20224;-52
2022/04/14 10:19:53;;;;;;;2.90;2.60;;;;;;;16.05;81.07;101510.09;5023182;28;20232;-52
2022/04/14 10:22:21;;;;;;;4.97;3.30;;;;;;;16.09;81.10;101517.09;5024033;28;20307;-52
2022/04/14 10:24:47;;;;;;;2.75;2.55;;;;;;;16.10;80.89;101513.56;5022532;28;20229;-55
2022/04/14 10:27:16;;;;;;;2.95;2.60;;;;;;;16.27;80.15;101515.13;5020152;28;20484;-54
2022/04/14 10:29:44;;;;;;;3.38;2.50;;;;;;;16.18;81.11;101505.50;5011058;28;20237;-53
2022/04/14 10:32:12;;;;;;;2.83;2.63;;;;;;;16.09;80.75;101509.16;5018392;28;20353;-62
2022/04/14 10:34:38;;;;;;;3.63;2.30;;;;;;;15.99;82.26;101504.84;5022106;28;20264;-54
2022/04/14 10:37:08;;;;;;;3.85;2.15;;;;;;;15.98;82.73;101503.09;5016606;28;20706;-54
2022/04/14 10:39:37;;;;;;;1.70;1.60;;;;;;;16.17;81.30;101507.28;5021414;28;20236;-55
2022/04/14 10:42:04;;;;;;;4.82;2.40;;;;;;;16.19;81.28;101508.16;5017929;28;20228;-54
2022/04/14 10:44:45;;;;;;;2.50;2.05;;;;;;;16.05;81.18;101502.16;5018574;28;20259;-52
2022/04/14 10:47:13;;;;;;;4.10;1.60;;;;;;;16.04;81.97;101503.06;5012449;28;20232;-53
2022/04/14 10:49:40;;;;;;;2.15;1.85;;;;;;;15.92;81.92;101508.47;5018297;28;20331;-53
2022/04/14 10:52:25;;;;;;;3.95;2.03;;;;;;;15.81;82.90;101498.00;5021975;28;20253;-53
2022/04/14 10:54:58;;;;;;;2.00;1.80;;;;;;;15.90;83.12;101504.94;5018262;28;20236;-54
2022/04/14 10:57:37;;;;;;;1.83;1.73;;;;;;;15.72;82.47;101517.50;5019712;28;20241;-54
2022/04/14 11:00:36;;;;;;;2.63;1.70;;;;;;;15.77;83.34;101519.22;5016844;28;20274;-53
2022/04/14 11:03:04;;;;;;;2.05;1.85;;;;;;;15.73;84.33;101524.53;5014597;28;20310;-55
2022/04/14 11:05:44;;;;;;;2.00;1.90;;;;;;;15.74;83.65;101517.47;5021742;28;20316;-55
2022/04/14 11:08:27;;;;;;;2.40;2.20;;;;;;;15.81;83.56;101520.94;5018619;28;20789;-53
2022/04/14 11:11:09;;;;;;;1.75;1.60;;;;;;;15.71;83.72;101531.63;5017777;28;20240;-52
2022/04/14 11:14:08;;;;;;;2.22;1.95;;;;;;;15.64;83.81;101535.19;5019580;28;20968;-53
2022/04/14 11:16:44;;;;;;;2.20;2.00;;;;;;;15.71;84.51;101541.31;5014748;28;20246;-52
2022/04/14 11:19:26;;;;;;;2.30;2.10;;;;;;;15.52;85.80;101535.31;5015288;28;20904;-54
2022/04/14 11:22:00;;;;;;;1.63;1.52;;;;;;;15.55;84.96;101547.59;5022724;28;20240;-51